createdAt,value
2023-02-23T00:00:44.999Z,8.44
2023-02-23T00:04:48.435Z,8.35
2023-02-23T00:08:53.720Z,8.41
2023-02-23T00:12:56.973Z,8.29
2023-02-23T00:17:01.455Z,8.06
2023-02-23T00:21:04.719Z,8.14
2023-02-23T00:25:11.784Z,8.30
2023-02-23T00:29:17.914Z,8.35
2023-02-23T00:33:22.075Z,8.14
2023-02-23T00:37:25.676Z,8.35
2023-02-23T00:41:30.747Z,8.35
2023-02-23T00:45:34.012Z,8.27
2023-02-23T00:49:37.200Z,8.41
2023-02-23T00:53:40.257Z,8.38
2023-02-23T00:57:44.979Z,8.22
2023-02-23T01:01:48.273Z,8.41
2023-02-23T01:05:51.347Z,8.22
2023-02-23T01:09:54.512Z,8.27
2023-02-23T01:14:00.712Z,8.48
2023-02-23T01:18:03.941Z,8.33
2023-02-23T01:22:06.939Z,8.20
2023-02-23T01:26:16.791Z,8.08
2023-02-23T01:30:21.211Z,8.12
2023-02-23T01:34:24.602Z,8.06
2023-02-23T01:38:28.332Z,8.23
2023-02-23T01:42:31.558Z,8.23
2023-02-23T01:46:39.398Z,8.16
2023-02-23T01:50:49.897Z,8.03
2023-02-23T01:54:54.867Z,8.21
2023-02-23T01:58:59.663Z,8.32
2023-02-23T02:03:08.920Z,8.37
2023-02-23T02:07:20.693Z,8.32
2023-02-23T02:11:30.929Z,8.24
2023-02-23T02:15:38.779Z,8.19
2023-02-23T02:20:15.059Z,8.07
2023-02-23T02:24:44.975Z,8.08
2023-02-23T02:29:18.884Z,7.97
2023-02-23T02:33:47.195Z,7.96
2023-02-23T02:38:01.863Z,7.93
2023-02-23T02:42:14.871Z,8.02
2023-02-23T02:46:19.516Z,8.00
2023-02-23T02:50:25.748Z,8.08
2023-02-23T02:54:33.207Z,8.07
2023-02-23T02:58:39.075Z,8.04
2023-02-23T03:02:59.931Z,7.88
2023-02-23T03:07:24.768Z,7.97
2023-02-23T03:11:54.119Z,8.20
2023-02-23T03:16:20.159Z,8.16
2023-02-23T03:20:45.615Z,8.12
2023-02-23T03:25:10.562Z,8.19
2023-02-23T03:29:37.496Z,8.20
2023-02-23T03:34:03.048Z,8.20
2023-02-23T03:38:27.334Z,8.30
2023-02-23T03:42:51.877Z,7.93
2023-02-23T03:47:14.897Z,7.97
2023-02-23T03:51:37.030Z,8.00
2023-02-23T03:56:00.389Z,7.76
2023-02-23T04:00:23.866Z,7.93
2023-02-23T04:04:47.066Z,7.80
2023-02-23T04:09:09.874Z,7.74
2023-02-23T04:13:14.620Z,7.59
2023-02-23T04:17:18.667Z,7.78
2023-02-23T04:21:23.148Z,7.82
2023-02-23T04:25:27.102Z,7.74
2023-02-23T04:29:30.130Z,7.56
2023-02-23T04:33:33.095Z,7.65
2023-02-23T04:37:37.663Z,7.49
2023-02-23T04:41:40.705Z,7.32
2023-02-23T04:45:43.832Z,7.42
2023-02-23T04:49:47.729Z,7.22
2023-02-23T04:53:58.026Z,7.44
2023-02-23T04:58:02.392Z,7.36
2023-02-23T05:02:05.488Z,6.92
2023-02-23T05:06:08.755Z,6.84
2023-02-23T05:10:14.009Z,6.97
2023-02-23T05:14:17.185Z,6.95
2023-02-23T05:18:20.531Z,7.17
2023-02-23T05:22:24.351Z,6.75
2023-02-23T05:26:28.561Z,6.80
2023-02-23T05:30:31.806Z,6.84
2023-02-23T05:34:35.463Z,7.14
2023-02-23T05:38:38.902Z,7.31
2023-02-23T05:42:43.582Z,7.19
2023-02-23T05:46:49.100Z,7.35
2023-02-23T05:50:52.170Z,7.18
2023-02-23T05:54:55.322Z,7.10
2023-02-23T05:59:00.297Z,7.00
2023-02-23T06:03:03.592Z,6.96
2023-02-23T06:07:06.756Z,7.09
2023-02-23T06:11:10.204Z,7.20
2023-02-23T06:15:14.425Z,7.26
2023-02-23T06:19:17.438Z,7.07
2023-02-23T06:23:20.365Z,7.07
2023-02-23T06:27:23.421Z,7.21
2023-02-23T06:31:27.948Z,7.28
2023-02-23T06:35:31.003Z,7.19
2023-02-23T06:39:34.556Z,6.99
2023-02-23T06:43:37.747Z,7.02
2023-02-23T06:47:42.276Z,7.22
2023-02-23T06:51:45.264Z,7.06
2023-02-23T06:55:48.300Z,7.22
2023-02-23T06:59:51.524Z,7.05
2023-02-23T07:03:56.773Z,7.16
2023-02-23T07:08:00.019Z,7.36
2023-02-23T07:12:04.495Z,7.27
2023-02-23T07:16:08.040Z,7.23
2023-02-23T07:20:13.933Z,7.38
2023-02-23T07:24:17.396Z,7.44
2023-02-23T07:28:21.520Z,7.56
2023-02-23T07:32:25.346Z,7.58
2023-02-23T07:36:29.782Z,7.64
2023-02-23T07:40:32.765Z,7.60
2023-02-23T07:44:35.735Z,7.81
2023-02-23T07:48:38.676Z,7.77
2023-02-23T07:52:44.266Z,7.57
2023-02-23T07:56:47.112Z,7.78
2023-02-23T08:00:49.953Z,7.63
2023-02-23T08:04:55.399Z,8.00
2023-02-23T08:09:01.593Z,8.05
2023-02-23T08:13:04.721Z,7.98
2023-02-23T08:17:07.741Z,8.06
2023-02-23T08:21:11.020Z,8.02
2023-02-23T08:25:16.608Z,8.05
2023-02-23T08:29:20.778Z,8.27
2023-02-23T08:33:24.122Z,8.23
2023-02-23T08:37:27.300Z,8.28
2023-02-23T08:41:32.334Z,8.40
2023-02-23T08:45:35.206Z,8.46
2023-02-23T08:49:38.227Z,8.68
2023-02-23T08:53:41.139Z,8.69
2023-02-23T08:57:45.788Z,8.65
2023-02-23T09:01:48.776Z,8.60
2023-02-23T09:05:51.710Z,8.55
2023-02-23T09:09:55.777Z,8.64
2023-02-23T09:14:01.082Z,8.42
2023-02-23T09:18:04.123Z,8.51
2023-02-23T09:22:06.985Z,8.62
2023-02-23T09:26:10.398Z,8.71
2023-02-23T09:30:18.093Z,8.89
2023-02-23T09:34:21.237Z,8.92
2023-02-23T09:38:25.855Z,8.92
2023-02-23T09:42:38.333Z,8.79
2023-02-23T09:46:46.869Z,8.85
2023-02-23T09:50:53.391Z,9.09
2023-02-23T09:54:56.331Z,9.24
2023-02-23T09:58:59.864Z,9.27
2023-02-23T10:03:19.447Z,9.43
2023-02-23T10:07:28.309Z,9.19
2023-02-23T10:11:38.415Z,8.89
2023-02-23T10:15:47.215Z,9.05
2023-02-23T10:19:57.473Z,9.03
2023-02-23T10:24:03.332Z,9.05
2023-02-23T10:28:07.175Z,9.33
2023-02-23T10:32:17.698Z,9.08
2023-02-23T10:36:33.345Z,9.22
2023-02-23T10:40:42.017Z,9.24
2023-02-23T10:44:48.632Z,9.15
2023-02-23T10:48:53.968Z,9.43
2023-02-23T10:53:01.716Z,9.61
2023-02-23T10:57:09.723Z,9.32
2023-02-23T11:01:13.610Z,9.47
2023-02-23T11:05:38.937Z,9.41
2023-02-23T11:09:47.378Z,9.43
2023-02-23T11:13:52.282Z,9.47
2023-02-23T11:17:57.672Z,9.26
2023-02-23T11:22:01.355Z,9.60
2023-02-23T11:26:06.605Z,9.88
2023-02-23T11:30:13.932Z,9.79
2023-02-23T11:34:24.499Z,9.52
2023-02-23T11:38:29.796Z,9.55
2023-02-23T11:42:34.784Z,9.39
2023-02-23T11:46:39.842Z,9.34
2023-02-23T11:50:51.614Z,9.46
2023-02-23T11:54:58.374Z,9.63
2023-02-23T11:59:04.782Z,9.43
2023-02-23T12:03:09.236Z,9.54
2023-02-23T12:07:37.511Z,9.55
2023-02-23T12:11:48.781Z,9.38
2023-02-23T12:15:56.137Z,9.50
2023-02-23T12:20:01.929Z,9.46
2023-02-23T12:24:14.964Z,9.50
2023-02-23T12:28:26.783Z,9.75
2023-02-23T12:32:45.394Z,9.49
2023-02-23T12:36:53.702Z,9.50
2023-02-23T12:41:06.297Z,9.76
2023-02-23T12:45:17.209Z,9.67
2023-02-23T12:49:27.481Z,9.52
2023-02-23T12:53:36.505Z,9.99
2023-02-23T12:57:45.045Z,10.25
2023-02-23T13:01:51.620Z,9.82
2023-02-23T13:05:58.751Z,9.77
2023-02-23T13:10:07.142Z,9.66
2023-02-23T13:14:13.979Z,9.80
2023-02-23T13:18:23.926Z,9.72
2023-02-23T13:22:30.362Z,10.09
2023-02-23T13:26:38.967Z,9.58
2023-02-23T13:30:47.500Z,9.73
2023-02-23T13:34:53.564Z,9.98
2023-02-23T13:39:21.387Z,10.00
2023-02-23T13:43:32.883Z,10.09
2023-02-23T13:47:41.341Z,9.57
2023-02-23T13:51:47.093Z,10.15
2023-02-23T13:55:53.581Z,10.19
2023-02-23T13:59:56.768Z,10.21
2023-02-23T14:04:02.272Z,10.04
2023-02-23T14:08:06.238Z,10.11
2023-02-23T14:12:19.646Z,10.22
2023-02-23T14:16:22.675Z,10.11
2023-02-23T14:20:47.940Z,10.13
2023-02-23T14:25:47.049Z,10.29
2023-02-23T14:30:17.659Z,10.12
2023-02-23T14:34:23.185Z,10.10
2023-02-23T14:38:46.988Z,10.37
2023-02-23T14:42:52.912Z,10.13
2023-02-23T14:47:03.506Z,10.27
2023-02-23T14:51:17.112Z,10.34
2023-02-23T14:55:23.554Z,10.29
2023-02-23T14:59:28.634Z,10.72
2023-02-23T15:03:33.643Z,10.50
2023-02-23T15:07:39.885Z,10.18
2023-02-23T15:11:46.424Z,10.27
2023-02-23T15:15:54.031Z,10.31
2023-02-23T15:20:14.839Z,10.21
2023-02-23T15:24:22.131Z,10.26
2023-02-23T15:28:32.365Z,10.19
2023-02-23T15:32:39.964Z,10.01
2023-02-23T15:36:47.393Z,10.01
2023-02-23T15:40:55.318Z,9.94
2023-02-23T15:45:03.793Z,9.97
2023-02-23T15:49:07.642Z,10.01
2023-02-23T15:53:24.667Z,9.98
2023-02-23T15:57:32.066Z,10.02
2023-02-23T16:01:38.960Z,10.05
2023-02-23T16:05:56.192Z,10.15
2023-02-23T16:10:07.569Z,9.92
2023-02-23T16:14:17.800Z,9.99
2023-02-23T16:18:23.443Z,9.92
2023-02-23T16:22:29.045Z,9.86
2023-02-23T16:26:37.524Z,9.75
2023-02-23T16:30:44.620Z,9.71
2023-02-23T16:34:51.595Z,9.84
2023-02-23T16:38:59.854Z,9.55
2023-02-23T16:43:04.588Z,9.58
2023-02-23T16:47:36.386Z,9.41
2023-02-23T16:51:40.889Z,9.55
2023-02-23T16:55:48.325Z,9.65
2023-02-23T16:59:55.389Z,9.33
2023-02-23T17:03:59.495Z,9.39
2023-02-23T17:08:03.280Z,9.14
2023-02-23T17:12:06.917Z,9.09
2023-02-23T17:16:14.510Z,9.23
2023-02-23T17:20:22.016Z,9.09
2023-02-23T17:24:26.310Z,9.25
2023-02-23T17:28:29.511Z,8.94
2023-02-23T17:32:34.424Z,8.62
2023-02-23T17:36:37.596Z,8.81
2023-02-23T17:40:41.280Z,8.82
2023-02-23T17:44:44.753Z,8.70
2023-02-23T17:48:57.178Z,8.68
2023-02-23T17:53:00.586Z,8.38
2023-02-23T17:57:04.584Z,8.46
2023-02-23T18:01:23.522Z,8.75
2023-02-23T18:05:28.491Z,8.74
2023-02-23T18:09:31.722Z,8.73
2023-02-23T18:13:37.414Z,8.69
2023-02-23T18:17:44.435Z,8.72
2023-02-23T18:21:56.558Z,8.26
2023-02-23T18:26:07.696Z,8.54
2023-02-23T18:30:12.801Z,8.38
2023-02-23T18:34:17.085Z,8.19
2023-02-23T18:38:29.059Z,8.51
2023-02-23T18:42:36.669Z,8.55
2023-02-23T18:46:41.974Z,8.57
2023-02-23T18:50:45.367Z,8.43
2023-02-23T18:54:53.365Z,8.14
2023-02-23T18:59:01.919Z,7.99
2023-02-23T19:03:05.211Z,7.79
2023-02-23T19:07:09.697Z,7.95
2023-02-23T19:11:14.801Z,7.76
2023-02-23T19:15:18.768Z,7.92
2023-02-23T19:19:22.422Z,7.85
2023-02-23T19:23:36.734Z,7.43
2023-02-23T19:27:45.928Z,7.13
2023-02-23T19:31:51.775Z,7.07
2023-02-23T19:36:01.274Z,7.19
2023-02-23T19:40:05.063Z,7.33
2023-02-23T19:44:09.977Z,7.40
2023-02-23T19:48:13.985Z,7.13
2023-02-23T19:52:18.238Z,7.25
2023-02-23T19:56:28.285Z,7.38
2023-02-23T20:00:37.316Z,7.37
2023-02-23T20:04:44.076Z,7.13
2023-02-23T20:08:49.342Z,7.03
2023-02-23T20:13:00.490Z,7.12
2023-02-23T20:17:15.225Z,7.06
2023-02-23T20:21:24.079Z,6.83
2023-02-23T20:25:28.821Z,7.31
2023-02-23T20:29:37.041Z,6.98
2023-02-23T20:33:43.203Z,7.13
2023-02-23T20:37:50.709Z,6.93
2023-02-23T20:41:54.902Z,6.71
2023-02-23T20:46:01.118Z,6.66
2023-02-23T20:50:10.747Z,6.67
2023-02-23T20:54:22.371Z,6.80
2023-02-23T20:58:26.552Z,6.73
2023-02-23T21:02:31.188Z,6.94
2023-02-23T21:06:36.481Z,7.17
2023-02-23T21:10:41.616Z,7.10
2023-02-23T21:14:53.955Z,7.09
2023-02-23T21:19:05.625Z,7.05
2023-02-23T21:23:10.989Z,7.39
2023-02-23T21:27:15.007Z,7.30
2023-02-23T21:31:18.193Z,7.36
2023-02-23T21:35:23.137Z,7.42
2023-02-23T21:39:31.095Z,7.33
2023-02-23T21:43:36.066Z,7.31
2023-02-23T21:47:41.744Z,7.20
2023-02-23T21:51:52.584Z,7.33
2023-02-23T21:56:03.704Z,7.28
2023-02-23T22:00:13.192Z,7.24
2023-02-23T22:04:18.294Z,7.17
2023-02-23T22:08:21.746Z,7.14
2023-02-23T22:12:27.802Z,7.05
2023-02-23T22:16:33.151Z,7.06
2023-02-23T22:20:36.552Z,6.95
2023-02-23T22:24:42.706Z,7.00
2023-02-23T22:28:47.856Z,7.05
2023-02-23T22:32:52.353Z,7.01
2023-02-23T22:36:56.931Z,6.76
2023-02-23T22:41:02.084Z,6.81
2023-02-23T22:45:08.637Z,7.01
2023-02-23T22:49:15.111Z,6.91
2023-02-23T22:53:20.056Z,7.00
2023-02-23T22:57:23.659Z,6.85
2023-02-23T23:01:28.511Z,6.79
2023-02-23T23:05:36.200Z,6.82
2023-02-23T23:09:43.397Z,6.99
2023-02-23T23:13:49.792Z,6.70
2023-02-23T23:17:54.840Z,6.85
2023-02-23T23:22:05.708Z,6.87
2023-02-23T23:26:09.018Z,6.96
2023-02-23T23:30:14.699Z,6.82
2023-02-23T23:34:27.059Z,6.68
2023-02-23T23:38:33.372Z,6.29
2023-02-23T23:42:37.082Z,6.14
2023-02-23T23:46:43.670Z,6.18
2023-02-23T23:50:50.092Z,6.26
2023-02-23T23:54:57.328Z,6.37
2023-02-23T23:59:07.983Z,6.19
